PWSweather.com
Personal Weather Stations
Station Observations
IMAZOWIE6
WarszawaPL

WarszawaPL

Lat: 52.27957, Lon: 21.05489

Elevation: 100

Station Type: WS1080

http://stacjapogody.waw.pl/

High Low Average
Temperature 35.1°F1.7°C 26.6°F-3.0°C 31.2°F-0.4°C
Dew Point 16.5°F-8.6°C -8.3°F-22.4°C 4.7°F-15.2°C
Winds 2.8 mph 4.5 kmh Calm Calm 1.0 mph N1.6 kmh N
Wind Gusts 6.2 mph10.0 kmh 0.6 mph1.0 kmh 3.0 mph4.8 kmh
Humidity 47% 21% 33%
Pressure 30.11 in1019.6 mb 29.96 in1014.6 mb -
Precipitation 0.00 in0.0 mm - -
Hour Temp Dew Point Humidity Winds Wind Gusts Pressure Precip Precip Rate Daily Precip Total
12:02 AM 26.6°F-3.0°C -8.3°F-22.4°C 21% 2.0 mph N3.2 kmh N 4.0 mph6.4 kmh 30.11 in1019.6 mb 0.00 in0.0 mm 0.00 in0.0 mm 0.00 in0.0 mm
12:17 AM 26.6°F-3.0°C -8.3°F-22.4°C 21% 1.4 mph N2.3 kmh N 4.0 mph6.4 kmh 30.11 in1019.6 mb 0.00 in0.0 mm 0.00 in0.0 mm 0.00 in0.0 mm
12:32 AM 26.6°F-3.0°C -7.3°F-21.8°C 22% 2.0 mph N3.2 kmh N 3.4 mph5.5 kmh 30.10 in1019.3 mb 0.00 in0.0 mm 0.00 in0.0 mm 0.00 in0.0 mm
12:47 AM 26.8°F-2.9°C -7.2°F-21.8°C 22% 2.0 mph N3.2 kmh N 3.4 mph5.5 kmh 30.10 in1019.3 mb 0.00 in0.0 mm 0.00 in0.0 mm 0.00 in0.0 mm
01:02 AM 26.8°F-2.9°C -7.2°F-21.8°C 22% 1.4 mph N2.3 kmh N 2.8 mph4.5 kmh 30.10 in1019.3 mb 0.00 in0.0 mm 0.00 in0.0 mm 0.00 in0.0 mm
01:17 AM 27.0°F-2.8°C -6.1°F-21.2°C 23% 1.4 mph N2.3 kmh N 3.4 mph5.5 kmh 30.09 in1019.0 mb 0.00 in0.0 mm 0.00 in0.0 mm 0.00 in0.0 mm
01:32 AM 27.0°F-2.8°C -6.1°F-21.2°C 23% 2.0 mph N3.2 kmh N 5.4 mph8.7 kmh 30.10 in1019.3 mb 0.00 in0.0 mm 0.00 in0.0 mm 0.00 in0.0 mm
01:47 AM 27.0°F-2.8°C -6.1°F-21.2°C 23% 1.4 mph N2.3 kmh N 2.8 mph4.5 kmh 30.09 in1019.0 mb 0.00 in0.0 mm 0.00 in0.0 mm 0.00 in0.0 mm
02:02 AM 27.0°F-2.8°C -5.2°F-20.7°C 24% 2.8 mph N4.5 kmh N 4.8 mph7.7 kmh 30.08 in1018.6 mb 0.00 in0.0 mm 0.00 in0.0 mm 0.00 in0.0 mm
02:17 AM 27.1°F-2.7°C -5.1°F-20.6°C 24% 1.4 mph N2.3 kmh N 3.4 mph5.5 kmh 30.09 in1019.0 mb 0.00 in0.0 mm 0.00 in0.0 mm 0.00 in0.0 mm
02:32 AM 27.3°F-2.6°C -4.1°F-20.1°C 25% 1.4 mph N2.3 kmh N 3.4 mph5.5 kmh 30.08 in1018.6 mb 0.00 in0.0 mm 0.00 in0.0 mm 0.00 in0.0 mm
02:47 AM 27.3°F-2.6°C -4.1°F-20.1°C 25% 1.4 mph N2.3 kmh N 4.8 mph7.7 kmh 30.08 in1018.6 mb 0.00 in0.0 mm 0.00 in0.0 mm 0.00 in0.0 mm
03:02 AM 27.3°F-2.6°C -4.1°F-20.1°C 25% 0.6 mph N1.0 kmh N 2.8 mph4.5 kmh 30.07 in1018.3 mb 0.00 in0.0 mm 0.00 in0.0 mm 0.00 in0.0 mm
03:17 AM 27.3°F-2.6°C -4.1°F-20.1°C 25% 2.8 mph N4.5 kmh N 4.8 mph7.7 kmh 30.07 in1018.3 mb 0.00 in0.0 mm 0.00 in0.0 mm 0.00 in0.0 mm
03:32 AM 27.3°F-2.6°C -3.3°F-19.6°C 26% 0.6 mph N1.0 kmh N 2.8 mph4.5 kmh 30.07 in1018.3 mb 0.00 in0.0 mm 0.00 in0.0 mm 0.00 in0.0 mm
03:47 AM 27.7°F-2.4°C -3.0°F-19.4°C 26% 1.4 mph N2.3 kmh N 2.8 mph4.5 kmh 30.07 in1018.3 mb 0.00 in0.0 mm 0.00 in0.0 mm 0.00 in0.0 mm
04:02 AM 27.3°F-2.6°C -3.3°F-19.6°C 26% 2.0 mph N3.2 kmh N 3.4 mph5.5 kmh 30.07 in1018.3 mb 0.00 in0.0 mm 0.00 in0.0 mm 0.00 in0.0 mm
04:17 AM 27.5°F-2.5°C -3.1°F-19.5°C 26% 1.4 mph N2.3 kmh N 3.4 mph5.5 kmh 30.07 in1018.3 mb 0.00 in0.0 mm 0.00 in0.0 mm 0.00 in0.0 mm
04:32 AM 27.5°F-2.5°C -3.1°F-19.5°C 26% 2.0 mph N3.2 kmh N 3.4 mph5.5 kmh 30.07 in1018.3 mb 0.00 in0.0 mm 0.00 in0.0 mm 0.00 in0.0 mm
04:47 AM 27.7°F-2.4°C -2.2°F-19.0°C 27% 2.0 mph N3.2 kmh N 4.0 mph6.4 kmh 30.07 in1018.3 mb 0.00 in0.0 mm 0.00 in0.0 mm 0.00 in0.0 mm
05:02 AM 27.5°F-2.5°C -2.3°F-19.1°C 27% 2.8 mph N4.5 kmh N 4.8 mph7.7 kmh 30.06 in1017.9 mb 0.00 in0.0 mm 0.00 in0.0 mm 0.00 in0.0 mm
05:17 AM 27.3°F-2.6°C -2.5°F-19.2°C 27% 0.6 mph N1.0 kmh N 2.8 mph4.5 kmh 30.06 in1017.9 mb 0.00 in0.0 mm 0.00 in0.0 mm 0.00 in0.0 mm
05:32 AM 27.5°F-2.5°C -2.3°F-19.1°C 27% 2.0 mph N3.2 kmh N 4.0 mph6.4 kmh 30.06 in1017.9 mb 0.00 in0.0 mm 0.00 in0.0 mm 0.00 in0.0 mm
05:47 AM 27.5°F-2.5°C -2.3°F-19.1°C 27% 0.6 mph N1.0 kmh N 3.4 mph5.5 kmh 30.06 in1017.9 mb 0.00 in0.0 mm 0.00 in0.0 mm 0.00 in0.0 mm
06:02 AM 27.7°F-2.4°C -1.4°F-18.6°C 28% 0.6 mph N1.0 kmh N 2.0 mph3.2 kmh 30.06 in1017.9 mb 0.00 in0.0 mm 0.00 in0.0 mm 0.00 in0.0 mm
06:17 AM 27.7°F-2.4°C -1.4°F-18.6°C 28% 1.4 mph N2.3 kmh N 4.0 mph6.4 kmh 30.06 in1017.9 mb 0.00 in0.0 mm 0.00 in0.0 mm 0.00 in0.0 mm
06:32 AM 27.7°F-2.4°C -1.4°F-18.6°C 28% 0.6 mph N1.0 kmh N 2.8 mph4.5 kmh 30.06 in1017.9 mb 0.00 in0.0 mm 0.00 in0.0 mm 0.00 in0.0 mm
06:47 AM 27.9°F-2.3°C -1.2°F-18.4°C 28% 0.6 mph N1.0 kmh N 2.8 mph4.5 kmh 30.06 in1017.9 mb 0.00 in0.0 mm 0.00 in0.0 mm 0.00 in0.0 mm
07:02 AM 28.0°F-2.2°C -0.3°F-17.9°C 29% 1.4 mph N2.3 kmh N 3.4 mph5.5 kmh 30.06 in1017.9 mb 0.00 in0.0 mm 0.00 in0.0 mm 0.00 in0.0 mm
07:17 AM 28.2°F-2.1°C -0.2°F-17.9°C 29% 1.4 mph N2.3 kmh N 3.4 mph5.5 kmh 30.05 in1017.6 mb 0.00 in0.0 mm 0.00 in0.0 mm 0.00 in0.0 mm
07:32 AM 28.2°F-2.1°C -0.2°F-17.9°C 29% 1.4 mph N2.3 kmh N 2.8 mph4.5 kmh 30.05 in1017.6 mb 0.00 in0.0 mm 0.00 in0.0 mm 0.00 in0.0 mm
07:47 AM 28.6°F-1.9°C 0.1°F-17.7°C 29% 1.4 mph N2.3 kmh N 3.4 mph5.5 kmh 30.06 in1017.9 mb 0.00 in0.0 mm 0.00 in0.0 mm 0.00 in0.0 mm
08:02 AM 28.8°F-1.8°C 1.0°F-17.2°C 30% 2.8 mph N4.5 kmh N 4.0 mph6.4 kmh 30.06 in1017.9 mb 0.00 in0.0 mm 0.00 in0.0 mm 0.00 in0.0 mm
08:17 AM 28.9°F-1.7°C 1.2°F-17.1°C 30% 1.4 mph N2.3 kmh N 3.4 mph5.5 kmh 30.06 in1017.9 mb 0.00 in0.0 mm 0.00 in0.0 mm 0.00 in0.0 mm
08:32 AM 28.6°F-1.9°C 0.8°F-17.3°C 30% 1.4 mph N2.3 kmh N 3.4 mph5.5 kmh 30.07 in1018.3 mb 0.00 in0.0 mm 0.00 in0.0 mm 0.00 in0.0 mm
08:47 AM 29.1°F-1.6°C 1.3°F-17.1°C 30% Calm Calm 1.4 mph2.3 kmh 30.07 in1018.3 mb 0.00 in0.0 mm 0.00 in0.0 mm 0.00 in0.0 mm
09:02 AM 29.5°F-1.4°C 2.3°F-16.5°C 31% 1.4 mph N2.3 kmh N 4.0 mph6.4 kmh 30.07 in1018.3 mb 0.00 in0.0 mm 0.00 in0.0 mm 0.00 in0.0 mm
09:17 AM 30.0°F-1.1°C 2.8°F-16.2°C 31% 0.6 mph N1.0 kmh N 2.0 mph3.2 kmh 30.07 in1018.3 mb 0.00 in0.0 mm 0.00 in0.0 mm 0.00 in0.0 mm
09:32 AM 30.2°F-1.0°C 3.0°F-16.1°C 31% 0.6 mph N1.0 kmh N 2.0 mph3.2 kmh 30.07 in1018.3 mb 0.00 in0.0 mm 0.00 in0.0 mm 0.00 in0.0 mm
09:47 AM 30.9°F-0.6°C 4.3°F-15.4°C 32% 0.6 mph N1.0 kmh N 2.0 mph3.2 kmh 30.06 in1017.9 mb 0.00 in0.0 mm 0.00 in0.0 mm 0.00 in0.0 mm
10:02 AM 31.1°F-0.5°C 4.4°F-15.3°C 32% 0.6 mph N1.0 kmh N 2.0 mph3.2 kmh 30.06 in1017.9 mb 0.00 in0.0 mm 0.00 in0.0 mm 0.00 in0.0 mm
10:17 AM 31.3°F-0.4°C 4.6°F-15.2°C 32% 1.4 mph N2.3 kmh N 3.4 mph5.5 kmh 30.06 in1017.9 mb 0.00 in0.0 mm 0.00 in0.0 mm 0.00 in0.0 mm
10:32 AM 31.5°F-0.3°C 4.8°F-15.1°C 32% 0.6 mph N1.0 kmh N 2.0 mph3.2 kmh 30.06 in1017.9 mb 0.00 in0.0 mm 0.00 in0.0 mm 0.00 in0.0 mm
10:47 AM 32.0°F0.0°C 5.2°F-14.9°C 32% 1.4 mph N2.3 kmh N 2.8 mph4.5 kmh 30.06 in1017.9 mb 0.00 in0.0 mm 0.00 in0.0 mm 0.00 in0.0 mm
11:02 AM 32.0°F0.0°C 5.2°F-14.9°C 32% 1.4 mph N2.3 kmh N 2.0 mph3.2 kmh 30.06 in1017.9 mb 0.00 in0.0 mm 0.00 in0.0 mm 0.00 in0.0 mm
11:17 AM 32.9°F0.5°C 6.7°F-14.1°C 33% 1.4 mph N2.3 kmh N 2.0 mph3.2 kmh 30.06 in1017.9 mb 0.00 in0.0 mm 0.00 in0.0 mm 0.00 in0.0 mm
11:32 AM 32.7°F0.4°C 6.5°F-14.2°C 33% 0.6 mph N1.0 kmh N 2.0 mph3.2 kmh 30.05 in1017.6 mb 0.00 in0.0 mm 0.00 in0.0 mm 0.00 in0.0 mm
11:47 AM 32.5°F0.3°C 6.4°F-14.2°C 33% Calm Calm 1.4 mph2.3 kmh 30.05 in1017.6 mb 0.00 in0.0 mm 0.00 in0.0 mm 0.00 in0.0 mm
12:02 PM 32.7°F0.4°C 6.5°F-14.2°C 33% 1.4 mph N2.3 kmh N 2.8 mph4.5 kmh 30.05 in1017.6 mb 0.00 in0.0 mm 0.00 in0.0 mm 0.00 in0.0 mm
12:17 PM 32.9°F0.5°C 6.7°F-14.1°C 33% 0.6 mph N1.0 kmh N 2.0 mph3.2 kmh 30.05 in1017.6 mb 0.00 in0.0 mm 0.00 in0.0 mm 0.00 in0.0 mm
12:32 PM 33.1°F0.6°C 6.9°F-13.9°C 33% 1.4 mph N2.3 kmh N 2.8 mph4.5 kmh 30.04 in1017.3 mb 0.00 in0.0 mm 0.00 in0.0 mm 0.00 in0.0 mm
12:47 PM 32.9°F0.5°C 6.7°F-14.1°C 33% 0.6 mph N1.0 kmh N 2.0 mph3.2 kmh 30.04 in1017.3 mb 0.00 in0.0 mm 0.00 in0.0 mm 0.00 in0.0 mm
01:02 PM 33.1°F0.6°C 6.9°F-13.9°C 33% 0.6 mph N1.0 kmh N 2.0 mph3.2 kmh 30.03 in1016.9 mb 0.00 in0.0 mm 0.00 in0.0 mm 0.00 in0.0 mm
01:17 PM 33.4°F0.8°C 7.2°F-13.8°C 33% 0.6 mph N1.0 kmh N 2.0 mph3.2 kmh 30.03 in1016.9 mb 0.00 in0.0 mm 0.00 in0.0 mm 0.00 in0.0 mm
01:32 PM 33.3°F0.7°C 7.0°F-13.9°C 33% 0.6 mph N1.0 kmh N 2.0 mph3.2 kmh 30.03 in1016.9 mb 0.00 in0.0 mm 0.00 in0.0 mm 0.00 in0.0 mm
01:47 PM 33.4°F0.8°C 7.2°F-13.8°C 33% 0.6 mph N1.0 kmh N 2.8 mph4.5 kmh 30.02 in1016.6 mb 0.00 in0.0 mm 0.00 in0.0 mm 0.00 in0.0 mm
02:02 PM 33.4°F0.8°C 7.2°F-13.8°C 33% 0.6 mph N1.0 kmh N 2.0 mph3.2 kmh 30.02 in1016.6 mb 0.00 in0.0 mm 0.00 in0.0 mm 0.00 in0.0 mm
02:17 PM 33.8°F1.0°C 7.5°F-13.6°C 33% 0.6 mph N1.0 kmh N 2.0 mph3.2 kmh 30.02 in1016.6 mb 0.00 in0.0 mm 0.00 in0.0 mm 0.00 in0.0 mm
02:32 PM 33.6°F0.9°C 7.3°F-13.7°C 33% 1.4 mph N2.3 kmh N 3.4 mph5.5 kmh 30.01 in1016.3 mb 0.00 in0.0 mm 0.00 in0.0 mm 0.00 in0.0 mm
02:47 PM 33.8°F1.0°C 7.5°F-13.6°C 33% 2.0 mph N3.2 kmh N 5.4 mph8.7 kmh 30.01 in1016.3 mb 0.00 in0.0 mm 0.00 in0.0 mm 0.00 in0.0 mm
03:02 PM 33.6°F0.9°C 7.3°F-13.7°C 33% 1.4 mph N2.3 kmh N 2.8 mph4.5 kmh 30.02 in1016.6 mb 0.00 in0.0 mm 0.00 in0.0 mm 0.00 in0.0 mm
03:17 PM 33.6°F0.9°C 7.3°F-13.7°C 33% 0.6 mph N1.0 kmh N 2.8 mph4.5 kmh 30.02 in1016.6 mb 0.00 in0.0 mm 0.00 in0.0 mm 0.00 in0.0 mm
03:32 PM 33.6°F0.9°C 7.3°F-13.7°C 33% 1.4 mph N2.3 kmh N 2.8 mph4.5 kmh 30.01 in1016.3 mb 0.00 in0.0 mm 0.00 in0.0 mm 0.00 in0.0 mm
03:47 PM 33.6°F0.9°C 7.3°F-13.7°C 33% 1.4 mph N2.3 kmh N 2.8 mph4.5 kmh 30.01 in1016.3 mb 0.00 in0.0 mm 0.00 in0.0 mm 0.00 in0.0 mm
04:02 PM 33.8°F1.0°C 8.2°F-13.2°C 34% 0.6 mph N1.0 kmh N 2.0 mph3.2 kmh 30.00 in1015.9 mb 0.00 in0.0 mm 0.00 in0.0 mm 0.00 in0.0 mm
04:17 PM 33.8°F1.0°C 8.2°F-13.2°C 34% 2.0 mph N3.2 kmh N 4.0 mph6.4 kmh 30.00 in1015.9 mb 0.00 in0.0 mm 0.00 in0.0 mm 0.00 in0.0 mm
04:32 PM 34.0°F1.1°C 9.0°F-12.8°C 35% 1.4 mph N2.3 kmh N 2.0 mph3.2 kmh 30.00 in1015.9 mb 0.00 in0.0 mm 0.00 in0.0 mm 0.00 in0.0 mm
04:47 PM 34.0°F1.1°C 9.0°F-12.8°C 35% 2.0 mph N3.2 kmh N 5.4 mph8.7 kmh 30.00 in1015.9 mb 0.00 in0.0 mm 0.00 in0.0 mm 0.00 in0.0 mm
05:02 PM 33.8°F1.0°C 8.8°F-12.9°C 35% 0.6 mph N1.0 kmh N 2.8 mph4.5 kmh 30.00 in1015.9 mb 0.00 in0.0 mm 0.00 in0.0 mm 0.00 in0.0 mm
05:17 PM 33.8°F1.0°C 9.4°F-12.6°C 36% 1.4 mph N2.3 kmh N 2.8 mph4.5 kmh 30.00 in1015.9 mb 0.00 in0.0 mm 0.00 in0.0 mm 0.00 in0.0 mm
05:32 PM 34.0°F1.1°C 9.6°F-12.4°C 36% 0.6 mph N1.0 kmh N 2.0 mph3.2 kmh 29.99 in1015.6 mb 0.00 in0.0 mm 0.00 in0.0 mm 0.00 in0.0 mm
05:47 PM 34.0°F1.1°C 10.2°F-12.1°C 37% 1.4 mph N2.3 kmh N 2.8 mph4.5 kmh 29.99 in1015.6 mb 0.00 in0.0 mm 0.00 in0.0 mm 0.00 in0.0 mm
06:02 PM 34.0°F1.1°C 10.2°F-12.1°C 37% 0.6 mph N1.0 kmh N 3.4 mph5.5 kmh 29.99 in1015.6 mb 0.00 in0.0 mm 0.00 in0.0 mm 0.00 in0.0 mm
06:17 PM 33.8°F1.0°C 10.0°F-12.2°C 37% 0.6 mph N1.0 kmh N 2.0 mph3.2 kmh 29.98 in1015.2 mb 0.00 in0.0 mm 0.00 in0.0 mm 0.00 in0.0 mm
06:32 PM 34.0°F1.1°C 10.8°F-11.8°C 38% Calm Calm 0.6 mph1.0 kmh 29.99 in1015.6 mb 0.00 in0.0 mm 0.00 in0.0 mm 0.00 in0.0 mm
06:47 PM 33.8°F1.0°C 10.6°F-11.9°C 38% 0.6 mph N1.0 kmh N 2.8 mph4.5 kmh 29.99 in1015.6 mb 0.00 in0.0 mm 0.00 in0.0 mm 0.00 in0.0 mm
07:02 PM 33.8°F1.0°C 11.2°F-11.6°C 39% 1.4 mph N2.3 kmh N 4.0 mph6.4 kmh 29.99 in1015.6 mb 0.00 in0.0 mm 0.00 in0.0 mm 0.00 in0.0 mm
07:17 PM 33.8°F1.0°C 11.2°F-11.6°C 39% 1.4 mph N2.3 kmh N 4.0 mph6.4 kmh 29.98 in1015.2 mb 0.00 in0.0 mm 0.00 in0.0 mm 0.00 in0.0 mm
07:32 PM 34.0°F1.1°C 12.0°F-11.1°C 40% 1.4 mph N2.3 kmh N 3.4 mph5.5 kmh 29.98 in1015.2 mb 0.00 in0.0 mm 0.00 in0.0 mm 0.00 in0.0 mm
07:47 PM 34.2°F1.2°C 12.1°F-11.1°C 40% 0.6 mph N1.0 kmh N 3.4 mph5.5 kmh 29.98 in1015.2 mb 0.00 in0.0 mm 0.00 in0.0 mm 0.00 in0.0 mm
08:02 PM 34.0°F1.1°C 12.5°F-10.8°C 41% 2.0 mph N3.2 kmh N 3.4 mph5.5 kmh 29.98 in1015.2 mb 0.00 in0.0 mm 0.00 in0.0 mm 0.00 in0.0 mm
08:17 PM 34.0°F1.1°C 12.5°F-10.8°C 41% 0.6 mph N1.0 kmh N 2.0 mph3.2 kmh 29.99 in1015.6 mb 0.00 in0.0 mm 0.00 in0.0 mm 0.00 in0.0 mm
08:32 PM 34.0°F1.1°C 12.5°F-10.8°C 41% 2.0 mph N3.2 kmh N 6.2 mph10.0 kmh 29.98 in1015.2 mb 0.01 in0.3 mm 0.05 in1.3 mm 0.01 in0.3 mm
08:47 PM 34.2°F1.2°C 13.2°F-10.4°C 42% 1.4 mph N2.3 kmh N 2.0 mph3.2 kmh 29.97 in1014.9 mb 0.01 in0.3 mm 0.00 in0.0 mm 0.01 in0.3 mm
09:02 PM 34.3°F1.3°C 13.4°F-10.3°C 42% 1.4 mph N2.3 kmh N 2.8 mph4.5 kmh 29.97 in1014.9 mb 0.01 in0.3 mm 0.00 in0.0 mm 0.01 in0.3 mm
09:17 PM 34.3°F1.3°C 13.4°F-10.3°C 42% 1.4 mph N2.3 kmh N 2.8 mph4.5 kmh 29.98 in1015.2 mb 0.00 in0.0 mm 0.00 in0.0 mm 0.01 in0.3 mm
09:32 PM 34.5°F1.4°C 14.1°F-9.9°C 43% 1.4 mph N2.3 kmh N 3.4 mph5.5 kmh 29.97 in1014.9 mb 0.00 in0.0 mm 0.00 in0.0 mm 0.01 in0.3 mm
09:47 PM 34.5°F1.4°C 14.1°F-9.9°C 43% 0.6 mph N1.0 kmh N 2.8 mph4.5 kmh 29.98 in1015.2 mb 0.00 in0.0 mm 0.00 in0.0 mm 0.01 in0.3 mm
10:02 PM 34.5°F1.4°C 14.1°F-9.9°C 43% Calm Calm 1.4 mph2.3 kmh 29.98 in1015.2 mb 0.00 in0.0 mm 0.00 in0.0 mm 0.01 in0.3 mm
10:17 PM 34.5°F1.4°C 14.6°F-9.7°C 44% 0.6 mph N1.0 kmh N 2.8 mph4.5 kmh 29.98 in1015.2 mb 0.00 in0.0 mm 0.00 in0.0 mm 0.01 in0.3 mm
10:32 PM 34.5°F1.4°C 14.6°F-9.7°C 44% 1.4 mph N2.3 kmh N 4.8 mph7.7 kmh 29.98 in1015.2 mb 0.00 in0.0 mm 0.00 in0.0 mm 0.01 in0.3 mm
10:47 PM 34.7°F1.5°C 15.3°F-9.3°C 45% 1.4 mph N2.3 kmh N 2.8 mph4.5 kmh 29.97 in1014.9 mb 0.00 in0.0 mm 0.00 in0.0 mm 0.01 in0.3 mm
11:02 PM 34.7°F1.5°C 15.3°F-9.3°C 45% 1.4 mph N2.3 kmh N 3.4 mph5.5 kmh 29.98 in1015.2 mb 0.00 in0.0 mm 0.00 in0.0 mm 0.01 in0.3 mm
11:17 PM 35.1°F1.7°C 16.2°F-8.8°C 46% 1.4 mph N2.3 kmh N 4.0 mph6.4 kmh 29.96 in1014.6 mb 0.00 in0.0 mm 0.00 in0.0 mm 0.01 in0.3 mm
11:32 PM 34.9°F1.6°C 16.5°F-8.6°C 47% 0.6 mph N1.0 kmh N 3.4 mph5.5 kmh 29.96 in1014.6 mb 0.00 in0.0 mm 0.00 in0.0 mm 0.01 in0.3 mm
11:47 PM 34.9°F1.6°C 16.5°F-8.6°C 47% 0.6 mph N1.0 kmh N 2.8 mph4.5 kmh 29.96 in1014.6 mb 0.00 in0.0 mm 0.00 in0.0 mm 0.01 in0.3 mm